createdAt,value
2022-12-03T00:02:07.691Z,38.60
2022-12-03T00:04:35.135Z,26.20
2022-12-03T00:07:02.441Z,23.98
2022-12-03T00:09:29.741Z,25.30
2022-12-03T00:11:57.009Z,26.80
2022-12-03T00:14:24.285Z,27.88
2022-12-03T00:16:51.529Z,25.23
2022-12-03T00:19:18.836Z,25.02
2022-12-03T00:21:46.212Z,25.90
2022-12-03T00:24:13.468Z,27.23
2022-12-03T00:26:40.752Z,27.10
2022-12-03T00:29:07.988Z,25.60
2022-12-03T00:31:35.345Z,28.27
2022-12-03T00:34:02.704Z,26.58
2022-12-03T00:36:30.193Z,28.13
2022-12-03T00:38:57.548Z,28.20
2022-12-03T00:41:24.849Z,28.67
2022-12-03T00:43:52.162Z,30.25
2022-12-03T00:46:21.599Z,25.40
2022-12-03T00:48:49.222Z,27.20
2022-12-03T00:51:16.498Z,27.85
2022-12-03T00:53:43.798Z,27.10
2022-12-03T00:56:11.089Z,26.83
2022-12-03T00:58:38.372Z,29.77
2022-12-03T01:01:05.778Z,27.13
2022-12-03T01:03:33.129Z,28.45
2022-12-03T01:06:00.466Z,27.23
2022-12-03T01:08:27.724Z,28.20
2022-12-03T01:10:55.008Z,28.20
2022-12-03T01:13:22.334Z,28.40
2022-12-03T01:15:49.588Z,27.33
2022-12-03T01:18:16.906Z,26.67
2022-12-03T01:20:44.252Z,25.63
2022-12-03T01:23:13.638Z,26.38
2022-12-03T01:25:40.946Z,28.67
2022-12-03T01:28:08.236Z,27.30
2022-12-03T01:30:55.591Z,25.38
2022-12-03T01:33:22.904Z,30.00
2022-12-03T01:35:50.217Z,26.27
2022-12-03T01:38:17.627Z,26.65
2022-12-03T01:40:45.226Z,28.45
2022-12-03T01:43:12.490Z,29.15
2022-12-03T01:45:39.800Z,29.20
2022-12-03T01:48:07.193Z,29.20
2022-12-03T01:50:34.727Z,30.38
2022-12-03T01:53:04.529Z,28.73
2022-12-03T01:55:31.808Z,27.42
2022-12-03T01:58:00.569Z,29.05
2022-12-03T02:00:28.798Z,27.83
2022-12-03T02:02:58.534Z,27.83
2022-12-03T02:05:27.667Z,27.92
2022-12-03T02:07:55.634Z,32.78
2022-12-03T02:10:27.877Z,31.13
2022-12-03T02:13:05.722Z,27.88
2022-12-03T02:15:33.111Z,31.08
2022-12-03T02:18:00.673Z,28.98
2022-12-03T02:20:28.068Z,31.25
2022-12-03T02:23:14.304Z,27.38
2022-12-03T02:25:41.665Z,29.45
2022-12-03T02:28:10.981Z,28.27
2022-12-03T02:30:38.422Z,30.73
2022-12-03T02:33:05.810Z,30.58
2022-12-03T02:35:35.167Z,31.30
2022-12-03T02:38:16.701Z,27.77
2022-12-03T02:40:45.185Z,29.83
2022-12-03T02:43:14.757Z,26.92
2022-12-03T02:45:52.754Z,26.52
2022-12-03T02:48:27.878Z,28.83
2022-12-03T02:51:00.078Z,23.83
2022-12-03T02:53:28.561Z,28.73
2022-12-03T02:55:56.881Z,32.20
2022-12-03T02:58:25.014Z,28.27
2022-12-03T03:00:53.454Z,27.52
2022-12-03T03:03:21.655Z,27.73
2022-12-03T03:05:49.683Z,27.35
2022-12-03T03:08:17.666Z,26.77
2022-12-03T03:10:45.435Z,28.08
2022-12-03T03:13:14.960Z,29.38
2022-12-03T03:15:43.125Z,27.38
2022-12-03T03:18:11.173Z,28.33
2022-12-03T03:20:38.441Z,30.40
2022-12-03T03:23:11.795Z,29.90
2022-12-03T03:25:40.049Z,27.35
2022-12-03T03:28:07.962Z,27.20
2022-12-03T03:30:36.103Z,29.27
2022-12-03T03:33:03.602Z,27.77
2022-12-03T03:35:31.119Z,30.95
2022-12-03T03:37:58.798Z,28.38
2022-12-03T03:40:27.105Z,26.92
2022-12-03T03:42:55.408Z,28.77
2022-12-03T03:45:28.858Z,28.33
2022-12-03T03:47:58.158Z,28.30
2022-12-03T03:50:26.406Z,29.55
2022-12-03T03:52:53.811Z,28.88
2022-12-03T03:55:21.176Z,29.27
2022-12-03T03:57:48.703Z,29.73
2022-12-03T04:00:16.920Z,26.40
2022-12-03T04:02:44.305Z,27.10
2022-12-03T04:05:21.644Z,29.75
2022-12-03T04:07:49.017Z,28.90
2022-12-03T04:10:35.447Z,27.67
2022-12-03T04:13:02.908Z,28.65
2022-12-03T04:15:30.270Z,28.23
2022-12-03T04:18:16.283Z,26.77
2022-12-03T04:20:43.560Z,27.95
2022-12-03T04:23:10.904Z,28.52
2022-12-03T04:25:57.236Z,29.40
2022-12-03T04:29:03.196Z,28.17
2022-12-03T04:31:48.956Z,27.88
2022-12-03T04:34:34.758Z,30.42
2022-12-03T04:37:02.224Z,30.20
2022-12-03T04:39:29.698Z,27.92
2022-12-03T04:41:56.950Z,30.60
2022-12-03T04:44:33.319Z,25.98
2022-12-03T04:47:01.251Z,28.20
2022-12-03T04:49:28.587Z,29.48
2022-12-03T04:51:55.869Z,26.88
2022-12-03T04:54:23.192Z,29.27
2022-12-03T04:56:50.451Z,29.20
2022-12-03T04:59:17.769Z,26.00
2022-12-03T05:01:45.470Z,30.88
2022-12-03T05:04:13.363Z,26.92
2022-12-03T05:06:40.740Z,28.73
2022-12-03T05:09:08.114Z,26.73
2022-12-03T05:11:35.402Z,28.85
2022-12-03T05:14:02.777Z,26.20
2022-12-03T05:16:30.143Z,27.98
2022-12-03T05:18:57.500Z,28.33
2022-12-03T05:21:24.790Z,31.70
2022-12-03T05:23:52.152Z,27.65
2022-12-03T05:26:19.469Z,27.48
2022-12-03T05:28:46.739Z,29.98
2022-12-03T05:31:14.209Z,31.20
2022-12-03T05:33:44.453Z,29.40
2022-12-03T05:36:12.015Z,29.17
2022-12-03T05:38:39.252Z,29.48
2022-12-03T05:41:25.313Z,29.05
2022-12-03T05:43:52.626Z,26.08
2022-12-03T05:46:20.145Z,28.95
2022-12-03T05:48:47.525Z,26.17
2022-12-03T05:51:14.852Z,29.63
2022-12-03T05:53:42.085Z,28.75
2022-12-03T05:56:24.480Z,28.38
2022-12-03T05:58:51.810Z,30.48
2022-12-03T06:01:19.126Z,27.70
2022-12-03T06:03:46.662Z,28.60
2022-12-03T06:06:14.059Z,32.83
2022-12-03T06:08:41.338Z,30.13
2022-12-03T06:11:08.588Z,26.70
2022-12-03T06:13:35.938Z,31.92
2022-12-03T06:16:03.185Z,30.60
2022-12-03T06:18:30.540Z,30.10
2022-12-03T06:20:57.843Z,31.63
2022-12-03T06:23:25.121Z,32.10
2022-12-03T06:25:52.388Z,31.20
2022-12-03T06:28:19.709Z,32.70
2022-12-03T06:30:47.043Z,35.00
2022-12-03T06:33:14.454Z,36.33
2022-12-03T06:35:41.838Z,38.75
2022-12-03T06:38:09.113Z,37.58
2022-12-03T06:40:38.265Z,37.35
2022-12-03T06:43:05.567Z,33.08
2022-12-03T06:45:32.881Z,37.95
2022-12-03T06:48:00.168Z,36.83
2022-12-03T06:50:27.447Z,38.20
2022-12-03T06:52:54.754Z,38.97
2022-12-03T06:55:21.999Z,32.60
2022-12-03T06:57:50.004Z,36.15
2022-12-03T07:00:17.440Z,34.65
2022-12-03T07:02:44.792Z,30.33
2022-12-03T07:05:14.014Z,36.90
2022-12-03T07:07:41.348Z,34.58
2022-12-03T07:10:08.949Z,31.88
2022-12-03T07:12:36.245Z,31.05
2022-12-03T07:15:03.585Z,36.63
2022-12-03T07:17:30.879Z,32.03
2022-12-03T07:19:58.145Z,34.15
2022-12-03T07:22:25.706Z,33.40
2022-12-03T07:24:53.285Z,28.40
2022-12-03T07:27:20.802Z,30.75
2022-12-03T07:29:48.123Z,35.70
2022-12-03T07:32:15.401Z,30.38
2022-12-03T07:34:42.686Z,32.00
2022-12-03T07:37:10.034Z,29.10
2022-12-03T07:39:37.658Z,29.35
2022-12-03T07:42:05.365Z,30.35
2022-12-03T07:44:33.251Z,28.13
2022-12-03T07:47:00.649Z,31.40
2022-12-03T07:49:28.158Z,31.30
2022-12-03T07:51:56.816Z,28.20
2022-12-03T07:54:24.880Z,29.25
2022-12-03T07:56:56.551Z,27.33
2022-12-03T07:59:27.025Z,29.33
2022-12-03T08:01:54.373Z,28.88
2022-12-03T08:04:21.712Z,28.15
2022-12-03T08:06:49.252Z,28.65
2022-12-03T08:09:16.667Z,27.55
2022-12-03T08:11:45.187Z,30.15
2022-12-03T08:14:14.171Z,30.25
2022-12-03T08:16:42.393Z,28.73
2022-12-03T08:19:10.591Z,32.72
2022-12-03T08:21:37.969Z,30.23
2022-12-03T08:24:21.620Z,27.83
2022-12-03T08:26:50.101Z,27.75
2022-12-03T08:29:19.286Z,29.40
2022-12-03T08:31:52.246Z,27.55
2022-12-03T08:34:21.339Z,30.00
2022-12-03T08:36:50.591Z,33.17
2022-12-03T08:39:28.122Z,30.80
2022-12-03T08:42:15.912Z,34.85
2022-12-03T08:44:43.269Z,29.52
2022-12-03T08:47:10.703Z,28.98
2022-12-03T08:49:38.023Z,33.08
2022-12-03T08:52:20.095Z,33.05
2022-12-03T08:54:54.591Z,34.30
2022-12-03T08:57:22.974Z,29.88
2022-12-03T08:59:50.958Z,33.83
2022-12-03T09:02:23.208Z,33.67
2022-12-03T09:04:52.810Z,35.00
2022-12-03T09:07:20.436Z,33.75
2022-12-03T09:09:47.717Z,32.95
2022-12-03T09:12:15.037Z,36.78
2022-12-03T09:14:42.340Z,34.25
2022-12-03T09:17:09.795Z,36.08
2022-12-03T09:19:41.423Z,35.97
2022-12-03T09:22:13.374Z,35.20
2022-12-03T09:24:42.406Z,38.33
2022-12-03T09:27:09.763Z,38.08
2022-12-03T09:29:37.138Z,35.83
2022-12-03T09:32:04.618Z,37.35
2022-12-03T09:34:32.080Z,39.13
2022-12-03T09:36:59.334Z,40.50
2022-12-03T09:39:26.643Z,41.60
2022-12-03T09:41:54.045Z,35.63
2022-12-03T09:44:21.403Z,39.58
2022-12-03T09:46:49.041Z,36.97
2022-12-03T09:49:17.779Z,36.92
2022-12-03T09:51:45.876Z,35.50
2022-12-03T09:54:21.777Z,33.95
2022-12-03T09:56:49.088Z,35.25
2022-12-03T09:59:16.334Z,36.38
2022-12-03T10:01:43.777Z,34.50
2022-12-03T10:04:11.372Z,41.67
2022-12-03T10:06:43.929Z,36.78
2022-12-03T10:09:14.535Z,34.83
2022-12-03T10:11:41.867Z,37.20
2022-12-03T10:14:12.653Z,39.28
2022-12-03T10:16:40.836Z,35.70
2022-12-03T10:19:12.371Z,35.70
2022-12-03T10:21:39.916Z,35.50
2022-12-03T10:24:22.731Z,34.20
2022-12-03T10:26:51.013Z,33.47
2022-12-03T10:29:28.179Z,34.47
2022-12-03T10:32:01.929Z,38.67
2022-12-03T10:34:30.800Z,35.88
2022-12-03T10:37:12.228Z,34.70
2022-12-03T10:40:08.439Z,36.58
2022-12-03T10:42:44.550Z,33.05
2022-12-03T10:45:25.078Z,33.53
2022-12-03T10:48:06.154Z,33.38
2022-12-03T10:50:33.862Z,30.33
2022-12-03T10:53:01.227Z,33.72
2022-12-03T10:55:29.816Z,34.38
2022-12-03T10:57:57.981Z,35.05
2022-12-03T11:00:25.772Z,40.67
2022-12-03T11:02:56.744Z,37.47
2022-12-03T11:05:28.248Z,35.75
2022-12-03T11:07:56.042Z,39.30
2022-12-03T11:10:23.485Z,43.28
2022-12-03T11:13:23.296Z,44.00
2022-12-03T11:15:50.657Z,41.63
2022-12-03T11:18:36.746Z,39.72
2022-12-03T11:21:07.041Z,41.78
2022-12-03T11:23:46.643Z,41.30
2022-12-03T11:26:18.967Z,40.67
2022-12-03T11:28:47.042Z,42.72
2022-12-03T11:31:47.033Z,46.42
2022-12-03T11:34:23.073Z,43.45
2022-12-03T11:37:09.200Z,47.80
2022-12-03T11:39:59.457Z,49.13
2022-12-03T11:42:37.701Z,41.63
2022-12-03T11:45:14.046Z,42.80
2022-12-03T11:47:46.056Z,38.83
2022-12-03T11:50:42.523Z,39.63
2022-12-03T11:53:15.261Z,34.92
2022-12-03T11:55:46.830Z,40.58
2022-12-03T11:58:20.683Z,43.35
2022-12-03T12:00:52.618Z,38.13
2022-12-03T12:03:33.103Z,34.45
2022-12-03T12:06:04.001Z,36.75
2022-12-03T12:08:31.597Z,38.95
2022-12-03T12:10:59.286Z,37.35
2022-12-03T12:13:26.676Z,38.38
2022-12-03T12:15:54.401Z,37.00
2022-12-03T12:18:42.107Z,35.80
2022-12-03T12:21:28.026Z,35.95
2022-12-03T12:23:55.277Z,27.88
2022-12-03T12:26:22.731Z,31.10
2022-12-03T12:28:50.066Z,27.90
2022-12-03T12:31:17.492Z,27.45
2022-12-03T12:33:44.878Z,30.70
2022-12-03T12:36:12.460Z,28.90
2022-12-03T12:38:39.771Z,28.98
2022-12-03T12:41:08.263Z,26.52
2022-12-03T12:43:36.054Z,25.23
2022-12-03T12:46:45.316Z,23.65
2022-12-03T12:48:59.859Z,24.27
2022-12-03T12:51:27.399Z,21.92
2022-12-03T12:53:54.753Z,23.40
2022-12-03T12:56:26.508Z,24.83
2022-12-03T12:58:54.118Z,22.42
2022-12-03T13:01:32.352Z,24.05
2022-12-03T13:03:59.799Z,23.67
2022-12-03T13:06:28.333Z,25.15
2022-12-03T13:08:55.822Z,24.63
2022-12-03T13:11:26.263Z,25.85
2022-12-03T13:13:53.575Z,25.42
2022-12-03T13:16:27.283Z,28.45
2022-12-03T13:18:55.620Z,27.60
2022-12-03T13:21:24.282Z,24.17
2022-12-03T13:23:52.824Z,27.35
2022-12-03T13:26:32.764Z,32.78
2022-12-03T13:29:15.616Z,31.42
2022-12-03T13:31:47.929Z,30.15
2022-12-03T13:34:19.774Z,29.50
2022-12-03T13:36:52.029Z,31.67
2022-12-03T13:39:32.266Z,32.55
2022-12-03T13:42:22.398Z,32.35
2022-12-03T13:44:50.032Z,31.52
2022-12-03T13:47:20.089Z,33.78
2022-12-03T13:49:51.775Z,30.17
2022-12-03T13:52:21.260Z,35.05
2022-12-03T13:54:52.314Z,34.08
2022-12-03T13:57:19.925Z,31.90
2022-12-03T13:59:47.256Z,36.88
2022-12-03T14:02:14.655Z,38.63
2022-12-03T14:04:42.063Z,35.28
2022-12-03T14:07:09.528Z,39.25
2022-12-03T14:09:36.811Z,35.33
2022-12-03T14:12:22.815Z,35.40
2022-12-03T14:14:50.104Z,43.38
2022-12-03T14:17:17.597Z,37.53
2022-12-03T14:19:45.230Z,40.80
2022-12-03T14:22:12.579Z,39.97
2022-12-03T14:24:40.118Z,41.15
2022-12-03T14:27:07.513Z,41.42
2022-12-03T14:29:34.837Z,45.08
2022-12-03T14:32:02.297Z,42.13
2022-12-03T14:34:29.644Z,39.55
2022-12-03T14:36:56.920Z,41.08
2022-12-03T14:39:24.259Z,38.80
2022-12-03T14:42:10.172Z,43.42
2022-12-03T14:44:37.457Z,54.83
2022-12-03T14:47:04.813Z,56.80
2022-12-03T14:49:32.101Z,55.35
2022-12-03T14:51:59.849Z,46.22
2022-12-03T14:54:27.122Z,48.55
2022-12-03T14:56:54.627Z,55.97
2022-12-03T14:59:27.457Z,47.78
2022-12-03T15:01:55.874Z,46.35
2022-12-03T15:04:23.253Z,50.92
2022-12-03T15:06:50.614Z,48.58
2022-12-03T15:09:18.054Z,48.63
2022-12-03T15:11:46.614Z,45.47
2022-12-03T15:14:14.269Z,43.17
2022-12-03T15:16:41.684Z,39.92
2022-12-03T15:19:08.965Z,44.70
2022-12-03T15:21:36.364Z,40.35
2022-12-03T15:24:04.668Z,41.15
2022-12-03T15:26:31.883Z,38.33
2022-12-03T15:28:59.265Z,38.28
2022-12-03T15:31:26.597Z,34.15
2022-12-03T15:33:53.914Z,39.15
2022-12-03T15:36:21.253Z,33.35
2022-12-03T15:38:48.628Z,36.03
2022-12-03T15:41:24.071Z,33.75
2022-12-03T15:43:52.695Z,32.15
2022-12-03T15:46:20.509Z,31.92
2022-12-03T15:48:48.341Z,31.77
2022-12-03T15:51:15.573Z,30.92
2022-12-03T15:53:43.102Z,33.65
2022-12-03T15:56:12.322Z,30.00
2022-12-03T15:58:40.515Z,32.42
2022-12-03T16:01:09.021Z,32.47
2022-12-03T16:03:36.802Z,32.00
2022-12-03T16:06:04.477Z,34.67
2022-12-03T16:08:31.767Z,33.55
2022-12-03T16:10:59.111Z,35.58
2022-12-03T16:13:26.400Z,34.38
2022-12-03T16:15:53.681Z,30.13
2022-12-03T16:18:21.041Z,29.10
2022-12-03T16:20:48.315Z,31.95
2022-12-03T16:23:15.605Z,31.95
2022-12-03T16:25:42.864Z,34.13
2022-12-03T16:28:10.175Z,35.00
2022-12-03T16:30:37.576Z,35.92
2022-12-03T16:33:04.998Z,33.28
2022-12-03T16:35:32.341Z,37.35
2022-12-03T16:37:59.644Z,40.42
2022-12-03T16:40:26.884Z,41.45
2022-12-03T16:42:54.203Z,45.72
2022-12-03T16:45:21.477Z,43.88
2022-12-03T16:47:48.826Z,48.80
2022-12-03T16:50:24.365Z,54.38
2022-12-03T16:52:56.273Z,47.13
2022-12-03T16:55:23.589Z,55.10
2022-12-03T16:57:50.887Z,51.72
2022-12-03T17:00:18.319Z,48.60
2022-12-03T17:02:45.732Z,48.80
2022-12-03T17:05:13.068Z,44.45
2022-12-03T17:07:40.619Z,54.15
2022-12-03T17:10:08.776Z,48.55
2022-12-03T17:13:07.193Z,56.20
2022-12-03T17:15:23.437Z,47.17
2022-12-03T17:17:50.724Z,51.30
2022-12-03T17:20:18.593Z,55.75
2022-12-03T17:22:45.932Z,54.88
2022-12-03T17:25:13.251Z,49.55
2022-12-03T17:27:45.013Z,48.58
2022-12-03T17:30:13.420Z,47.97
2022-12-03T17:32:41.073Z,48.03
2022-12-03T17:35:08.840Z,46.45
2022-12-03T17:37:36.368Z,46.25
2022-12-03T17:40:05.545Z,44.72
2022-12-03T17:42:32.883Z,48.45
2022-12-03T17:45:00.174Z,48.22
2022-12-03T17:47:27.473Z,45.42
2022-12-03T17:49:56.058Z,44.95
2022-12-03T17:52:23.691Z,48.13
2022-12-03T17:57:38.266Z,49.55
2022-12-03T18:00:05.929Z,47.83
2022-12-03T18:02:39.463Z,46.90
2022-12-03T18:05:06.911Z,51.33
2022-12-03T18:07:34.257Z,50.40
2022-12-03T18:10:01.780Z,50.92
2022-12-03T18:12:29.220Z,50.95
2022-12-03T18:14:56.490Z,51.97
2022-12-03T18:17:24.177Z,46.43
2022-12-03T18:19:51.653Z,49.47
2022-12-03T18:22:19.461Z,49.53
2022-12-03T18:24:50.228Z,50.78
2022-12-03T18:27:19.108Z,51.72
2022-12-03T18:29:46.321Z,50.97
2022-12-03T18:32:27.818Z,53.28
2022-12-03T18:34:56.699Z,52.85
2022-12-03T18:37:26.620Z,54.10
2022-12-03T18:39:54.350Z,55.88
2022-12-03T18:42:23.601Z,47.33
2022-12-03T18:44:52.162Z,48.95
2022-12-03T18:47:23.722Z,51.78
2022-12-03T18:49:51.547Z,46.97
2022-12-03T18:52:21.103Z,51.95
2022-12-03T18:54:48.456Z,47.03
2022-12-03T18:57:15.861Z,53.05
2022-12-03T18:59:43.182Z,50.75
2022-12-03T19:02:38.559Z,51.58
2022-12-03T19:05:04.594Z,55.42
2022-12-03T19:07:31.958Z,49.63
2022-12-03T19:09:59.326Z,50.83
2022-12-03T19:12:26.691Z,52.28
2022-12-03T19:14:53.964Z,52.75
2022-12-03T19:17:21.683Z,51.10
2022-12-03T19:19:49.055Z,47.70
2022-12-03T19:22:16.382Z,47.20
2022-12-03T19:24:43.850Z,51.10
2022-12-03T19:27:11.347Z,46.78
2022-12-03T19:29:38.669Z,50.20
2022-12-03T19:32:06.095Z,45.22
2022-12-03T19:34:33.431Z,54.90
2022-12-03T19:37:00.741Z,47.83
2022-12-03T19:39:28.011Z,51.13
2022-12-03T19:41:55.313Z,50.65
2022-12-03T19:44:22.666Z,50.60
2022-12-03T19:46:50.571Z,48.63
2022-12-03T19:49:20.929Z,46.03
2022-12-03T19:51:48.532Z,49.70
2022-12-03T19:54:16.390Z,47.65
2022-12-03T19:56:44.299Z,50.88
2022-12-03T19:59:15.014Z,47.03
2022-12-03T20:01:43.435Z,47.85
2022-12-03T20:04:11.868Z,47.15
2022-12-03T20:06:39.415Z,47.25
2022-12-03T20:09:08.922Z,46.58
2022-12-03T20:11:36.291Z,46.05
2022-12-03T20:14:05.357Z,46.13
2022-12-03T20:16:33.008Z,46.55
2022-12-03T20:19:01.266Z,49.85
2022-12-03T20:21:30.479Z,42.63
2022-12-03T20:23:57.902Z,46.67
2022-12-03T20:26:25.563Z,41.83
2022-12-03T20:28:56.411Z,43.95
2022-12-03T20:31:24.702Z,45.38
2022-12-03T20:33:53.262Z,44.20
2022-12-03T20:36:22.690Z,47.65
2022-12-03T20:38:50.378Z,45.92
2022-12-03T20:41:18.696Z,43.95
2022-12-03T20:43:46.218Z,45.20
2022-12-03T20:46:13.605Z,41.67
2022-12-03T20:48:41.634Z,38.42
2022-12-03T20:51:10.347Z,44.47
2022-12-03T20:53:37.627Z,46.38
2022-12-03T20:56:05.710Z,43.65
2022-12-03T20:58:33.570Z,40.72
2022-12-03T21:01:15.566Z,40.22
2022-12-03T21:03:43.781Z,43.90
2022-12-03T21:06:11.476Z,42.42
2022-12-03T21:08:41.975Z,43.40
2022-12-03T21:11:10.848Z,43.70
2022-12-03T21:13:41.237Z,45.38
2022-12-03T21:16:09.401Z,41.00
2022-12-03T21:18:36.739Z,42.70
2022-12-03T21:21:04.278Z,45.38
2022-12-03T21:23:31.835Z,43.73
2022-12-03T21:26:03.166Z,40.97
2022-12-03T21:28:30.891Z,42.17
2022-12-03T21:31:05.531Z,40.97
2022-12-03T21:33:33.393Z,42.85
2022-12-03T21:36:01.043Z,42.55
2022-12-03T21:38:29.120Z,41.20
2022-12-03T21:40:57.275Z,40.60
2022-12-03T21:43:24.985Z,39.50
2022-12-03T21:45:52.477Z,45.42
2022-12-03T21:48:19.850Z,43.13
2022-12-03T21:50:47.541Z,47.10
2022-12-03T21:53:14.842Z,43.35
2022-12-03T21:55:42.199Z,40.53
2022-12-03T21:58:09.580Z,38.63
2022-12-03T22:00:37.150Z,45.63
2022-12-03T22:03:04.563Z,39.72
2022-12-03T22:05:31.954Z,42.28
2022-12-03T22:07:59.267Z,39.88
2022-12-03T22:10:26.570Z,39.13
2022-12-03T22:12:53.896Z,40.30
2022-12-03T22:15:21.145Z,37.78
2022-12-03T22:17:48.644Z,42.33
2022-12-03T22:20:15.970Z,41.90
2022-12-03T22:22:43.228Z,39.47
2022-12-03T22:25:10.571Z,42.63
2022-12-03T22:27:37.829Z,41.83
2022-12-03T22:30:06.297Z,43.03
2022-12-03T22:32:33.781Z,41.40
2022-12-03T22:35:01.065Z,43.28
2022-12-03T22:37:28.317Z,41.97
2022-12-03T22:39:55.761Z,43.92
2022-12-03T22:42:23.235Z,41.13
2022-12-03T22:44:50.502Z,41.17
2022-12-03T22:47:17.921Z,40.20
2022-12-03T22:49:45.164Z,43.58
2022-12-03T22:52:12.433Z,41.72
2022-12-03T22:54:40.053Z,41.40
2022-12-03T22:57:07.469Z,44.25
2022-12-03T22:59:34.774Z,45.00
2022-12-03T23:02:02.686Z,41.20
2022-12-03T23:04:30.061Z,43.67
2022-12-03T23:06:57.304Z,41.58
2022-12-03T23:09:24.677Z,41.17
2022-12-03T23:11:51.894Z,45.63
2022-12-03T23:14:19.231Z,43.03
2022-12-03T23:16:46.520Z,45.33
2022-12-03T23:19:14.692Z,40.33
2022-12-03T23:21:41.982Z,41.22
2022-12-03T23:24:09.249Z,46.60
2022-12-03T23:26:37.346Z,42.53
2022-12-03T23:29:06.083Z,42.28
2022-12-03T23:31:34.096Z,46.15
2022-12-03T23:34:01.748Z,43.55
2022-12-03T23:36:30.121Z,42.50
2022-12-03T23:38:57.441Z,40.47
2022-12-03T23:41:24.759Z,46.00
2022-12-03T23:43:52.382Z,41.00
2022-12-03T23:46:23.874Z,44.35
2022-12-03T23:48:51.583Z,42.97
2022-12-03T23:51:20.620Z,45.58
2022-12-03T23:53:48.306Z,43.85
2022-12-03T23:56:17.051Z,48.42
2022-12-03T23:58:44.935Z,49.33
